sensor_id;sensor_type;location;lat;lon;timestamp;P1;durP1;ratioP1;P2;durP2;ratioP2
45392;SDS011;31129;44.810;10.334;2023-09-18T00:01:54;31.15;;;25.92;;
45392;SDS011;31129;44.810;10.334;2023-09-18T00:04:20;31.88;;;27.10;;
45392;SDS011;31129;44.810;10.334;2023-09-18T00:06:45;34.92;;;26.13;;
45392;SDS011;31129;44.810;10.334;2023-09-18T00:09:11;36.15;;;26.25;;
45392;SDS011;31129;44.810;10.334;2023-09-18T00:11:39;34.65;;;25.88;;
45392;SDS011;31129;44.810;10.334;2023-09-18T00:14:05;27.40;;;24.13;;
45392;SDS011;31129;44.810;10.334;2023-09-18T00:16:30;28.50;;;23.80;;
45392;SDS011;31129;44.810;10.334;2023-09-18T00:18:57;29.58;;;24.00;;
45392;SDS011;31129;44.810;10.334;2023-09-18T00:21:22;30.05;;;22.90;;
45392;SDS011;31129;44.810;10.334;2023-09-18T00:23:51;27.30;;;23.13;;
45392;SDS011;31129;44.810;10.334;2023-09-18T00:26:17;31.23;;;22.52;;
45392;SDS011;31129;44.810;10.334;2023-09-18T00:28:46;29.35;;;23.15;;
45392;SDS011;31129;44.810;10.334;2023-09-18T00:31:15;30.85;;;23.80;;
45392;SDS011;31129;44.810;10.334;2023-09-18T00:33:42;28.65;;;22.58;;
45392;SDS011;31129;44.810;10.334;2023-09-18T00:36:07;25.83;;;23.05;;
45392;SDS011;31129;44.810;10.334;2023-09-18T00:38:33;35.28;;;22.38;;
45392;SDS011;31129;44.810;10.334;2023-09-18T00:40:58;31.30;;;22.13;;
45392;SDS011;31129;44.810;10.334;2023-09-18T00:43:24;28.63;;;22.48;;
45392;SDS011;31129;44.810;10.334;2023-09-18T00:45:49;28.92;;;22.40;;
45392;SDS011;31129;44.810;10.334;2023-09-18T00:48:18;27.42;;;21.10;;
45392;SDS011;31129;44.810;10.334;2023-09-18T00:50:44;28.33;;;20.83;;
45392;SDS011;31129;44.810;10.334;2023-09-18T00:53:12;29.85;;;20.42;;
45392;SDS011;31129;44.810;10.334;2023-09-18T00:55:40;23.67;;;19.75;;
45392;SDS011;31129;44.810;10.334;2023-09-18T00:58:06;25.27;;;19.52;;
45392;SDS011;31129;44.810;10.334;2023-09-18T01:00:32;24.33;;;18.55;;
45392;SDS011;31129;44.810;10.334;2023-09-18T01:02:58;23.05;;;17.17;;
45392;SDS011;31129;44.810;10.334;2023-09-18T01:05:25;26.23;;;16.58;;
45392;SDS011;31129;44.810;10.334;2023-09-18T01:07:51;25.02;;;17.23;;
45392;SDS011;31129;44.810;10.334;2023-09-18T01:10:17;25.52;;;16.42;;
45392;SDS011;31129;44.810;10.334;2023-09-18T01:12:46;19.25;;;15.45;;
45392;SDS011;31129;44.810;10.334;2023-09-18T01:15:18;22.88;;;16.65;;
45392;SDS011;31129;44.810;10.334;2023-09-18T01:17:45;28.95;;;15.50;;
45392;SDS011;31129;44.810;10.334;2023-09-18T01:20:12;26.05;;;16.40;;
45392;SDS011;31129;44.810;10.334;2023-09-18T01:22:37;22.92;;;15.63;;
45392;SDS011;31129;44.810;10.334;2023-09-18T01:25:03;26.60;;;16.40;;
45392;SDS011;31129;44.810;10.334;2023-09-18T01:27:29;27.58;;;16.88;;
45392;SDS011;31129;44.810;10.334;2023-09-18T01:29:55;25.65;;;15.95;;
45392;SDS011;31129;44.810;10.334;2023-09-18T01:32:21;22.48;;;17.08;;
45392;SDS011;31129;44.810;10.334;2023-09-18T01:34:51;21.15;;;16.42;;
45392;SDS011;31129;44.810;10.334;2023-09-18T01:39:51;23.08;;;15.55;;
45392;SDS011;31129;44.810;10.334;2023-09-18T01:42:18;20.63;;;15.68;;
45392;SDS011;31129;44.810;10.334;2023-09-18T01:44:44;21.05;;;14.88;;
45392;SDS011;31129;44.810;10.334;2023-09-18T01:47:13;18.15;;;15.05;;
45392;SDS011;31129;44.810;10.334;2023-09-18T01:49:41;22.58;;;15.00;;
45392;SDS011;31129;44.810;10.334;2023-09-18T01:52:07;20.02;;;15.32;;
45392;SDS011;31129;44.810;10.334;2023-09-18T01:54:34;23.20;;;14.97;;
45392;SDS011;31129;44.810;10.334;2023-09-18T01:57:00;20.42;;;15.05;;
45392;SDS011;31129;44.810;10.334;2023-09-18T01:59:27;22.30;;;15.13;;
45392;SDS011;31129;44.810;10.334;2023-09-18T02:01:52;24.42;;;15.43;;
45392;SDS011;31129;44.810;10.334;2023-09-18T02:04:18;18.60;;;13.95;;
45392;SDS011;31129;44.810;10.334;2023-09-18T02:06:45;24.15;;;15.05;;
45392;SDS011;31129;44.810;10.334;2023-09-18T02:09:12;21.30;;;15.60;;
45392;SDS011;31129;44.810;10.334;2023-09-18T02:11:39;19.48;;;15.68;;
45392;SDS011;31129;44.810;10.334;2023-09-18T02:14:06;24.65;;;15.13;;
45392;SDS011;31129;44.810;10.334;2023-09-18T02:16:35;24.30;;;14.65;;
45392;SDS011;31129;44.810;10.334;2023-09-18T02:21:28;18.30;;;13.55;;
45392;SDS011;31129;44.810;10.334;2023-09-18T02:23:54;21.95;;;14.93;;
45392;SDS011;31129;44.810;10.334;2023-09-18T02:26:23;20.60;;;15.10;;
45392;SDS011;31129;44.810;10.334;2023-09-18T02:28:51;21.53;;;15.27;;
45392;SDS011;31129;44.810;10.334;2023-09-18T02:31:18;19.60;;;14.90;;
45392;SDS011;31129;44.810;10.334;2023-09-18T02:33:44;23.73;;;15.55;;
45392;SDS011;31129;44.810;10.334;2023-09-18T02:36:10;27.63;;;15.88;;
45392;SDS011;31129;44.810;10.334;2023-09-18T02:38:36;20.30;;;14.60;;
45392;SDS011;31129;44.810;10.334;2023-09-18T02:41:01;21.48;;;15.93;;
45392;SDS011;31129;44.810;10.334;2023-09-18T02:43:27;20.08;;;14.95;;
45392;SDS011;31129;44.810;10.334;2023-09-18T02:45:53;15.88;;;13.23;;
45392;SDS011;31129;44.810;10.334;2023-09-18T02:48:18;18.17;;;12.45;;
45392;SDS011;31129;44.810;10.334;2023-09-18T02:50:44;22.70;;;13.57;;
45392;SDS011;31129;44.810;10.334;2023-09-18T02:53:20;21.20;;;15.10;;
45392;SDS011;31129;44.810;10.334;2023-09-18T02:55:53;18.05;;;14.93;;
45392;SDS011;31129;44.810;10.334;2023-09-18T02:58:20;20.63;;;15.07;;
45392;SDS011;31129;44.810;10.334;2023-09-18T03:00:47;20.50;;;15.60;;
45392;SDS011;31129;44.810;10.334;2023-09-18T03:05:40;22.80;;;15.88;;
45392;SDS011;31129;44.810;10.334;2023-09-18T03:08:09;23.55;;;15.23;;
45392;SDS011;31129;44.810;10.334;2023-09-18T03:10:36;16.80;;;14.63;;
45392;SDS011;31129;44.810;10.334;2023-09-18T03:13:05;18.70;;;13.88;;
45392;SDS011;31129;44.810;10.334;2023-09-18T03:15:32;19.97;;;13.17;;
45392;SDS011;31129;44.810;10.334;2023-09-18T03:17:58;20.75;;;14.50;;
45392;SDS011;31129;44.810;10.334;2023-09-18T03:20:27;24.00;;;15.50;;
45392;SDS011;31129;44.810;10.334;2023-09-18T03:22:55;21.55;;;14.85;;
45392;SDS011;31129;44.810;10.334;2023-09-18T03:25:22;20.73;;;13.85;;
45392;SDS011;31129;44.810;10.334;2023-09-18T03:27:49;19.95;;;15.02;;
45392;SDS011;31129;44.810;10.334;2023-09-18T03:30:17;22.58;;;15.25;;
45392;SDS011;31129;44.810;10.334;2023-09-18T03:32:43;20.73;;;15.40;;
45392;SDS011;31129;44.810;10.334;2023-09-18T03:35:09;21.60;;;14.02;;
45392;SDS011;31129;44.810;10.334;2023-09-18T03:37:46;22.05;;;14.63;;
45392;SDS011;31129;44.810;10.334;2023-09-18T03:40:16;23.60;;;15.35;;
45392;SDS011;31129;44.810;10.334;2023-09-18T03:42:42;24.05;;;15.65;;
45392;SDS011;31129;44.810;10.334;2023-09-18T03:45:08;25.40;;;15.82;;
45392;SDS011;31129;44.810;10.334;2023-09-18T03:47:36;16.08;;;14.15;;
45392;SDS011;31129;44.810;10.334;2023-09-18T03:50:04;21.73;;;15.50;;
45392;SDS011;31129;44.810;10.334;2023-09-18T03:52:32;21.35;;;14.13;;
45392;SDS011;31129;44.810;10.334;2023-09-18T03:55:00;22.52;;;14.27;;
45392;SDS011;31129;44.810;10.334;2023-09-18T03:57:26;20.33;;;14.98;;
45392;SDS011;31129;44.810;10.334;2023-09-18T03:59:51;19.70;;;14.43;;
45392;SDS011;31129;44.810;10.334;2023-09-18T04:02:18;19.92;;;13.45;;
45392;SDS011;31129;44.810;10.334;2023-09-18T04:04:43;21.83;;;13.70;;
45392;SDS011;31129;44.810;10.334;2023-09-18T04:07:09;18.55;;;14.40;;
45392;SDS011;31129;44.810;10.334;2023-09-18T04:09:35;18.27;;;13.95;;
45392;SDS011;31129;44.810;10.334;2023-09-18T04:12:02;28.15;;;14.18;;
45392;SDS011;31129;44.810;10.334;2023-09-18T04:14:30;19.42;;;13.90;;
45392;SDS011;31129;44.810;10.334;2023-09-18T04:16:55;19.58;;;13.88;;
45392;SDS011;31129;44.810;10.334;2023-09-18T04:19:21;20.38;;;14.02;;
45392;SDS011;31129;44.810;10.334;2023-09-18T04:21:46;23.75;;;14.70;;
45392;SDS011;31129;44.810;10.334;2023-09-18T04:24:16;19.30;;;14.57;;
45392;SDS011;31129;44.810;10.334;2023-09-18T04:26:42;21.08;;;13.23;;
45392;SDS011;31129;44.810;10.334;2023-09-18T04:29:08;25.00;;;14.65;;
45392;SDS011;31129;44.810;10.334;2023-09-18T04:31:34;25.52;;;14.57;;
45392;SDS011;31129;44.810;10.334;2023-09-18T04:33:59;21.00;;;14.27;;
45392;SDS011;31129;44.810;10.334;2023-09-18T04:36:28;21.77;;;13.57;;
45392;SDS011;31129;44.810;10.334;2023-09-18T04:38:53;20.13;;;14.40;;
45392;SDS011;31129;44.810;10.334;2023-09-18T04:41:19;18.67;;;14.07;;
45392;SDS011;31129;44.810;10.334;2023-09-18T04:43:45;21.75;;;14.88;;
45392;SDS011;31129;44.810;10.334;2023-09-18T04:46:11;21.13;;;14.25;;
45392;SDS011;31129;44.810;10.334;2023-09-18T04:48:36;20.98;;;14.43;;
45392;SDS011;31129;44.810;10.334;2023-09-18T04:51:03;18.13;;;13.98;;
45392;SDS011;31129;44.810;10.334;2023-09-18T04:53:30;20.70;;;13.95;;
45392;SDS011;31129;44.810;10.334;2023-09-18T04:55:56;24.73;;;14.88;;
45392;SDS011;31129;44.810;10.334;2023-09-18T04:58:22;20.40;;;13.90;;
45392;SDS011;31129;44.810;10.334;2023-09-18T05:00:54;17.25;;;13.45;;
45392;SDS011;31129;44.810;10.334;2023-09-18T05:03:20;17.95;;;13.52;;
45392;SDS011;31129;44.810;10.334;2023-09-18T05:05:46;20.27;;;14.13;;
45392;SDS011;31129;44.810;10.334;2023-09-18T05:08:12;27.67;;;15.18;;
45392;SDS011;31129;44.810;10.334;2023-09-18T05:10:37;20.13;;;13.30;;
45392;SDS011;31129;44.810;10.334;2023-09-18T05:13:03;20.00;;;12.20;;
45392;SDS011;31129;44.810;10.334;2023-09-18T05:15:32;24.10;;;11.98;;
45392;SDS011;31129;44.810;10.334;2023-09-18T05:17:59;21.92;;;13.60;;
45392;SDS011;31129;44.810;10.334;2023-09-18T05:20:29;17.45;;;13.18;;
45392;SDS011;31129;44.810;10.334;2023-09-18T05:22:56;27.73;;;13.80;;
45392;SDS011;31129;44.810;10.334;2023-09-18T05:25:23;19.17;;;13.20;;
45392;SDS011;31129;44.810;10.334;2023-09-18T05:27:51;13.40;;;11.45;;
45392;SDS011;31129;44.810;10.334;2023-09-18T05:30:24;23.27;;;12.88;;
45392;SDS011;31129;44.810;10.334;2023-09-18T05:32:56;22.73;;;12.95;;
45392;SDS011;31129;44.810;10.334;2023-09-18T05:35:22;18.33;;;12.88;;
45392;SDS011;31129;44.810;10.334;2023-09-18T05:37:48;25.58;;;11.75;;
45392;SDS011;31129;44.810;10.334;2023-09-18T05:40:15;24.73;;;12.27;;
45392;SDS011;31129;44.810;10.334;2023-09-18T05:42:42;14.20;;;10.32;;
45392;SDS011;31129;44.810;10.334;2023-09-18T05:45:12;16.90;;;11.75;;
45392;SDS011;31129;44.810;10.334;2023-09-18T05:47:40;19.15;;;11.88;;
45392;SDS011;31129;44.810;10.334;2023-09-18T05:50:06;19.77;;;12.50;;
45392;SDS011;31129;44.810;10.334;2023-09-18T05:52:39;20.38;;;12.65;;
45392;SDS011;31129;44.810;10.334;2023-09-18T05:55:05;20.17;;;13.13;;
45392;SDS011;31129;44.810;10.334;2023-09-18T05:57:34;23.77;;;15.57;;
45392;SDS011;31129;44.810;10.334;2023-09-18T06:00:00;20.45;;;15.10;;
45392;SDS011;31129;44.810;10.334;2023-09-18T06:02:26;18.60;;;12.55;;
45392;SDS011;31129;44.810;10.334;2023-09-18T06:04:55;19.92;;;12.07;;
45392;SDS011;31129;44.810;10.334;2023-09-18T06:07:24;24.33;;;12.85;;
45392;SDS011;31129;44.810;10.334;2023-09-18T06:09:50;23.58;;;12.65;;
45392;SDS011;31129;44.810;10.334;2023-09-18T06:12:15;37.67;;;15.57;;
45392;SDS011;31129;44.810;10.334;2023-09-18T06:14:41;20.15;;;14.70;;
45392;SDS011;31129;44.810;10.334;2023-09-18T06:17:07;28.40;;;14.90;;
45392;SDS011;31129;44.810;10.334;2023-09-18T06:19:35;23.55;;;15.10;;
45392;SDS011;31129;44.810;10.334;2023-09-18T06:22:01;34.78;;;18.25;;
45392;SDS011;31129;44.810;10.334;2023-09-18T06:24:26;28.13;;;18.48;;
45392;SDS011;31129;44.810;10.334;2023-09-18T06:26:53;24.42;;;17.80;;
45392;SDS011;31129;44.810;10.334;2023-09-18T06:29:19;25.38;;;16.85;;
45392;SDS011;31129;44.810;10.334;2023-09-18T06:31:45;27.52;;;15.32;;
45392;SDS011;31129;44.810;10.334;2023-09-18T06:34:10;26.48;;;16.80;;
45392;SDS011;31129;44.810;10.334;2023-09-18T06:36:36;20.95;;;12.68;;
45392;SDS011;31129;44.810;10.334;2023-09-18T06:39:02;20.65;;;13.18;;
45392;SDS011;31129;44.810;10.334;2023-09-18T06:41:28;25.05;;;11.70;;
45392;SDS011;31129;44.810;10.334;2023-09-18T06:43:53;28.55;;;16.55;;
45392;SDS011;31129;44.810;10.334;2023-09-18T06:46:19;19.08;;;13.00;;
45392;SDS011;31129;44.810;10.334;2023-09-18T06:48:45;18.25;;;13.52;;
45392;SDS011;31129;44.810;10.334;2023-09-18T06:51:14;31.05;;;22.20;;
45392;SDS011;31129;44.810;10.334;2023-09-18T06:53:40;28.30;;;19.17;;
45392;SDS011;31129;44.810;10.334;2023-09-18T06:56:06;29.50;;;19.13;;
45392;SDS011;31129;44.810;10.334;2023-09-18T06:58:31;22.92;;;15.65;;
45392;SDS011;31129;44.810;10.334;2023-09-18T07:00:57;26.40;;;18.75;;
45392;SDS011;31129;44.810;10.334;2023-09-18T07:03:23;22.98;;;16.50;;
45392;SDS011;31129;44.810;10.334;2023-09-18T07:05:49;31.92;;;19.80;;
45392;SDS011;31129;44.810;10.334;2023-09-18T07:08:14;33.92;;;18.25;;
45392;SDS011;31129;44.810;10.334;2023-09-18T07:10:44;43.80;;;30.55;;
45392;SDS011;31129;44.810;10.334;2023-09-18T07:13:15;49.67;;;36.17;;
45392;SDS011;31129;44.810;10.334;2023-09-18T07:15:40;45.92;;;36.45;;
45392;SDS011;31129;44.810;10.334;2023-09-18T07:18:06;39.65;;;25.05;;
45392;SDS011;31129;44.810;10.334;2023-09-18T07:20:32;41.75;;;27.05;;
45392;SDS011;31129;44.810;10.334;2023-09-18T07:22:57;40.25;;;33.50;;
45392;SDS011;31129;44.810;10.334;2023-09-18T07:25:23;52.35;;;34.35;;
45392;SDS011;31129;44.810;10.334;2023-09-18T07:27:48;45.50;;;30.42;;
45392;SDS011;31129;44.810;10.334;2023-09-18T07:30:14;39.13;;;30.45;;
45392;SDS011;31129;44.810;10.334;2023-09-18T07:32:44;41.38;;;31.48;;
45392;SDS011;31129;44.810;10.334;2023-09-18T07:35:11;47.67;;;31.58;;
45392;SDS011;31129;44.810;10.334;2023-09-18T07:37:42;47.30;;;31.23;;
45392;SDS011;31129;44.810;10.334;2023-09-18T07:40:10;44.25;;;30.45;;
45392;SDS011;31129;44.810;10.334;2023-09-18T07:42:36;40.00;;;28.40;;
45392;SDS011;31129;44.810;10.334;2023-09-18T07:45:01;41.80;;;29.88;;
45392;SDS011;31129;44.810;10.334;2023-09-18T07:47:27;40.72;;;26.60;;
45392;SDS011;31129;44.810;10.334;2023-09-18T07:49:52;41.28;;;28.73;;
45392;SDS011;31129;44.810;10.334;2023-09-18T07:52:19;35.88;;;28.65;;
45392;SDS011;31129;44.810;10.334;2023-09-18T07:54:45;47.22;;;29.08;;
45392;SDS011;31129;44.810;10.334;2023-09-18T07:57:10;80.00;;;30.80;;
45392;SDS011;31129;44.810;10.334;2023-09-18T07:59:36;105.32;;;34.83;;
45392;SDS011;31129;44.810;10.334;2023-09-18T08:02:02;71.45;;;34.33;;
45392;SDS011;31129;44.810;10.334;2023-09-18T08:04:27;55.78;;;28.20;;
45392;SDS011;31129;44.810;10.334;2023-09-18T08:06:53;56.88;;;30.92;;
45392;SDS011;31129;44.810;10.334;2023-09-18T08:09:21;45.55;;;30.58;;
45392;SDS011;31129;44.810;10.334;2023-09-18T08:11:47;46.05;;;31.58;;
45392;SDS011;31129;44.810;10.334;2023-09-18T08:14:14;46.72;;;32.20;;
45392;SDS011;31129;44.810;10.334;2023-09-18T08:16:43;38.85;;;32.17;;
45392;SDS011;31129;44.810;10.334;2023-09-18T08:19:08;47.70;;;34.67;;
45392;SDS011;31129;44.810;10.334;2023-09-18T08:21:37;49.35;;;36.15;;
45392;SDS011;31129;44.810;10.334;2023-09-18T08:24:03;42.67;;;35.17;;
45392;SDS011;31129;44.810;10.334;2023-09-18T08:26:28;48.35;;;34.80;;
45392;SDS011;31129;44.810;10.334;2023-09-18T08:28:54;57.58;;;36.92;;
45392;SDS011;31129;44.810;10.334;2023-09-18T08:31:19;98.05;;;37.38;;
45392;SDS011;31129;44.810;10.334;2023-09-18T08:33:49;60.42;;;38.00;;
45392;SDS011;31129;44.810;10.334;2023-09-18T08:36:16;55.55;;;36.75;;
45392;SDS011;31129;44.810;10.334;2023-09-18T08:38:41;52.97;;;36.80;;
45392;SDS011;31129;44.810;10.334;2023-09-18T08:41:09;52.55;;;36.47;;
45392;SDS011;31129;44.810;10.334;2023-09-18T08:46:02;54.03;;;38.45;;
45392;SDS011;31129;44.810;10.334;2023-09-18T08:48:29;56.88;;;40.50;;
45392;SDS011;31129;44.810;10.334;2023-09-18T08:51:02;43.72;;;36.60;;
45392;SDS011;31129;44.810;10.334;2023-09-18T08:53:33;51.25;;;39.10;;
45392;SDS011;31129;44.810;10.334;2023-09-18T08:56:01;54.40;;;40.90;;
45392;SDS011;31129;44.810;10.334;2023-09-18T08:58:27;52.83;;;40.93;;
45392;SDS011;31129;44.810;10.334;2023-09-18T09:00:57;56.33;;;41.90;;
45392;SDS011;31129;44.810;10.334;2023-09-18T09:03:23;55.87;;;43.07;;
45392;SDS011;31129;44.810;10.334;2023-09-18T09:05:52;56.33;;;40.90;;
45392;SDS011;31129;44.810;10.334;2023-09-18T09:08:18;54.83;;;40.58;;
45392;SDS011;31129;44.810;10.334;2023-09-18T09:10:43;50.90;;;39.08;;
45392;SDS011;31129;44.810;10.334;2023-09-18T09:13:09;61.92;;;40.60;;
45392;SDS011;31129;44.810;10.334;2023-09-18T09:15:43;51.53;;;38.35;;
45392;SDS011;31129;44.810;10.334;2023-09-18T09:18:15;54.40;;;37.25;;
45392;SDS011;31129;44.810;10.334;2023-09-18T09:20:41;53.70;;;38.20;;
45392;SDS011;31129;44.810;10.334;2023-09-18T09:23:17;48.85;;;36.75;;
45392;SDS011;31129;44.810;10.334;2023-09-18T09:25:42;58.45;;;38.90;;
45392;SDS011;31129;44.810;10.334;2023-09-18T09:28:08;40.88;;;32.80;;
45392;SDS011;31129;44.810;10.334;2023-09-18T09:30:34;45.97;;;36.90;;
45392;SDS011;31129;44.810;10.334;2023-09-18T09:33:04;55.05;;;36.03;;
45392;SDS011;31129;44.810;10.334;2023-09-18T09:35:31;48.92;;;36.72;;
45392;SDS011;31129;44.810;10.334;2023-09-18T09:38:09;46.95;;;36.92;;
45392;SDS011;31129;44.810;10.334;2023-09-18T09:40:40;53.83;;;34.25;;
45392;SDS011;31129;44.810;10.334;2023-09-18T09:43:07;45.13;;;33.03;;
45392;SDS011;31129;44.810;10.334;2023-09-18T09:48:02;46.58;;;36.35;;
45392;SDS011;31129;44.810;10.334;2023-09-18T09:50:32;52.28;;;37.45;;
45392;SDS011;31129;44.810;10.334;2023-09-18T09:52:58;54.05;;;39.67;;
45392;SDS011;31129;44.810;10.334;2023-09-18T09:55:25;55.15;;;39.35;;
45392;SDS011;31129;44.810;10.334;2023-09-18T09:58:02;61.97;;;42.35;;
45392;SDS011;31129;44.810;10.334;2023-09-18T10:03:06;61.00;;;44.78;;
45392;SDS011;31129;44.810;10.334;2023-09-18T10:05:41;62.05;;;44.60;;
45392;SDS011;31129;44.810;10.334;2023-09-18T10:08:08;54.67;;;42.53;;
45392;SDS011;31129;44.810;10.334;2023-09-18T10:10:38;56.60;;;42.40;;
45392;SDS011;31129;44.810;10.334;2023-09-18T10:13:09;63.10;;;43.45;;
45392;SDS011;31129;44.810;10.334;2023-09-18T10:15:37;56.67;;;41.13;;
45392;SDS011;31129;44.810;10.334;2023-09-18T10:18:08;65.43;;;44.80;;
45392;SDS011;31129;44.810;10.334;2023-09-18T10:20:43;61.58;;;43.13;;
45392;SDS011;31129;44.810;10.334;2023-09-18T10:23:20;64.35;;;43.08;;
45392;SDS011;31129;44.810;10.334;2023-09-18T10:25:59;53.80;;;40.15;;
45392;SDS011;31129;44.810;10.334;2023-09-18T10:28:28;51.33;;;39.60;;
45392;SDS011;31129;44.810;10.334;2023-09-18T10:33:22;52.42;;;42.00;;
45392;SDS011;31129;44.810;10.334;2023-09-18T10:35:48;55.33;;;42.33;;
45392;SDS011;31129;44.810;10.334;2023-09-18T10:38:15;64.78;;;42.70;;
45392;SDS011;31129;44.810;10.334;2023-09-18T10:40:46;53.70;;;39.97;;
45392;SDS011;31129;44.810;10.334;2023-09-18T10:43:12;60.90;;;43.38;;
45392;SDS011;31129;44.810;10.334;2023-09-18T10:45:42;62.70;;;43.95;;
45392;SDS011;31129;44.810;10.334;2023-09-18T10:48:09;64.70;;;43.70;;
45392;SDS011;31129;44.810;10.334;2023-09-18T10:50:38;65.75;;;46.03;;
45392;SDS011;31129;44.810;10.334;2023-09-18T10:53:05;75.07;;;49.15;;
45392;SDS011;31129;44.810;10.334;2023-09-18T10:55:33;70.18;;;47.17;;
45392;SDS011;31129;44.810;10.334;2023-09-18T10:57:59;70.78;;;48.42;;
45392;SDS011;31129;44.810;10.334;2023-09-18T11:00:26;69.88;;;49.90;;
45392;SDS011;31129;44.810;10.334;2023-09-18T11:05:39;78.80;;;47.80;;
45392;SDS011;31129;44.810;10.334;2023-09-18T11:08:23;66.72;;;47.03;;
45392;SDS011;31129;44.810;10.334;2023-09-18T11:11:17;72.22;;;47.10;;
45392;SDS011;31129;44.810;10.334;2023-09-18T11:13:45;64.15;;;45.78;;
45392;SDS011;31129;44.810;10.334;2023-09-18T11:21:24;57.30;;;41.95;;
45392;SDS011;31129;44.810;10.334;2023-09-18T11:23:58;59.40;;;38.95;;
45392;SDS011;31129;44.810;10.334;2023-09-18T11:26:37;55.40;;;39.38;;
45392;SDS011;31129;44.810;10.334;2023-09-18T11:29:13;55.13;;;37.92;;
45392;SDS011;31129;44.810;10.334;2023-09-18T11:31:49;56.03;;;37.35;;
45392;SDS011;31129;44.810;10.334;2023-09-18T11:36:56;45.85;;;34.60;;
45392;SDS011;31129;44.810;10.334;2023-09-18T11:39:39;42.40;;;32.28;;
45392;SDS011;31129;44.810;10.334;2023-09-18T11:42:10;46.65;;;32.88;;
45392;SDS011;31129;44.810;10.334;2023-09-18T11:44:55;45.05;;;31.80;;
45392;SDS011;31129;44.810;10.334;2023-09-18T11:47:24;45.13;;;30.60;;
45392;SDS011;31129;44.810;10.334;2023-09-18T11:49:58;47.25;;;30.58;;
45392;SDS011;31129;44.810;10.334;2023-09-18T11:52:25;42.88;;;30.98;;
45392;SDS011;31129;44.810;10.334;2023-09-18T11:54:52;55.88;;;29.98;;
45392;SDS011;31129;44.810;10.334;2023-09-18T11:57:19;44.88;;;29.65;;
45392;SDS011;31129;44.810;10.334;2023-09-18T11:59:45;48.17;;;29.70;;
45392;SDS011;31129;44.810;10.334;2023-09-18T12:02:24;49.42;;;28.38;;
45392;SDS011;31129;44.810;10.334;2023-09-18T12:05:04;44.10;;;28.30;;
45392;SDS011;31129;44.810;10.334;2023-09-18T12:07:40;49.53;;;27.33;;
45392;SDS011;31129;44.810;10.334;2023-09-18T12:10:17;46.85;;;26.35;;
45392;SDS011;31129;44.810;10.334;2023-09-18T12:12:48;40.13;;;23.83;;
45392;SDS011;31129;44.810;10.334;2023-09-18T12:15:14;44.08;;;20.15;;
45392;SDS011;31129;44.810;10.334;2023-09-18T12:18:06;39.58;;;16.63;;
45392;SDS011;31129;44.810;10.334;2023-09-18T12:20:32;37.95;;;10.43;;
45392;SDS011;31129;44.810;10.334;2023-09-18T12:22:59;44.33;;;9.77;;
45392;SDS011;31129;44.810;10.334;2023-09-18T12:25:25;42.95;;;9.27;;
45392;SDS011;31129;44.810;10.334;2023-09-18T12:27:52;39.33;;;9.32;;
45392;SDS011;31129;44.810;10.334;2023-09-18T12:30:18;54.08;;;8.30;;
45392;SDS011;31129;44.810;10.334;2023-09-18T12:32:49;45.47;;;8.32;;
45392;SDS011;31129;44.810;10.334;2023-09-18T12:35:14;36.92;;;8.25;;
45392;SDS011;31129;44.810;10.334;2023-09-18T12:37:40;45.92;;;7.45;;
45392;SDS011;31129;44.810;10.334;2023-09-18T12:40:07;52.17;;;7.95;;
45392;SDS011;31129;44.810;10.334;2023-09-18T12:42:45;42.53;;;7.70;;
45392;SDS011;31129;44.810;10.334;2023-09-18T12:45:13;49.10;;;7.72;;
45392;SDS011;31129;44.810;10.334;2023-09-18T12:47:39;48.60;;;7.73;;
45392;SDS011;31129;44.810;10.334;2023-09-18T12:50:06;46.57;;;8.17;;
45392;SDS011;31129;44.810;10.334;2023-09-18T12:52:36;39.47;;;7.22;;
45392;SDS011;31129;44.810;10.334;2023-09-18T12:55:02;35.30;;;6.43;;
45392;SDS011;31129;44.810;10.334;2023-09-18T12:57:31;48.13;;;8.38;;
45392;SDS011;31129;44.810;10.334;2023-09-18T12:59:57;41.95;;;7.13;;
45392;SDS011;31129;44.810;10.334;2023-09-18T13:02:22;34.20;;;6.45;;
45392;SDS011;31129;44.810;10.334;2023-09-18T13:04:52;38.88;;;7.20;;
45392;SDS011;31129;44.810;10.334;2023-09-18T13:07:21;45.13;;;7.93;;
45392;SDS011;31129;44.810;10.334;2023-09-18T13:10:04;46.55;;;7.43;;
45392;SDS011;31129;44.810;10.334;2023-09-18T13:15:07;47.47;;;8.02;;
45392;SDS011;31129;44.810;10.334;2023-09-18T13:17:38;42.50;;;7.38;;
45392;SDS011;31129;44.810;10.334;2023-09-18T13:20:13;38.92;;;7.03;;
45392;SDS011;31129;44.810;10.334;2023-09-18T13:22:41;37.00;;;6.53;;
45392;SDS011;31129;44.810;10.334;2023-09-18T13:25:08;43.35;;;7.25;;
45392;SDS011;31129;44.810;10.334;2023-09-18T13:29:59;38.38;;;7.45;;
45392;SDS011;31129;44.810;10.334;2023-09-18T13:32:38;43.35;;;6.47;;
45392;SDS011;31129;44.810;10.334;2023-09-18T13:35:03;48.17;;;7.32;;
45392;SDS011;31129;44.810;10.334;2023-09-18T13:37:33;36.05;;;7.25;;
45392;SDS011;31129;44.810;10.334;2023-09-18T13:39:59;38.47;;;6.78;;
45392;SDS011;31129;44.810;10.334;2023-09-18T13:42:28;34.70;;;7.00;;
45392;SDS011;31129;44.810;10.334;2023-09-18T13:45:00;48.13;;;7.78;;
45392;SDS011;31129;44.810;10.334;2023-09-18T13:47:26;49.47;;;7.53;;
45392;SDS011;31129;44.810;10.334;2023-09-18T13:49:53;36.28;;;6.18;;
45392;SDS011;31129;44.810;10.334;2023-09-18T13:52:18;37.70;;;6.45;;
45392;SDS011;31129;44.810;10.334;2023-09-18T13:54:45;39.42;;;6.63;;
45392;SDS011;31129;44.810;10.334;2023-09-18T13:57:16;30.45;;;6.30;;
45392;SDS011;31129;44.810;10.334;2023-09-18T13:59:43;35.33;;;5.68;;
45392;SDS011;31129;44.810;10.334;2023-09-18T14:02:10;31.03;;;6.30;;
45392;SDS011;31129;44.810;10.334;2023-09-18T14:04:36;44.25;;;7.10;;
45392;SDS011;31129;44.810;10.334;2023-09-18T14:07:02;41.78;;;6.72;;
45392;SDS011;31129;44.810;10.334;2023-09-18T14:09:28;33.05;;;4.70;;
45392;SDS011;31129;44.810;10.334;2023-09-18T14:11:54;28.73;;;5.55;;
45392;SDS011;31129;44.810;10.334;2023-09-18T14:14:22;32.70;;;6.20;;
45392;SDS011;31129;44.810;10.334;2023-09-18T14:16:48;38.63;;;5.20;;
45392;SDS011;31129;44.810;10.334;2023-09-18T14:19:15;44.88;;;5.82;;
45392;SDS011;31129;44.810;10.334;2023-09-18T14:21:41;28.00;;;5.40;;
45392;SDS011;31129;44.810;10.334;2023-09-18T14:24:08;38.30;;;5.90;;
45392;SDS011;31129;44.810;10.334;2023-09-18T14:26:34;44.38;;;6.13;;
45392;SDS011;31129;44.810;10.334;2023-09-18T14:29:09;35.28;;;5.35;;
45392;SDS011;31129;44.810;10.334;2023-09-18T14:31:38;26.25;;;5.38;;
45392;SDS011;31129;44.810;10.334;2023-09-18T14:34:03;20.73;;;5.45;;
45392;SDS011;31129;44.810;10.334;2023-09-18T14:36:31;30.58;;;5.63;;
45392;SDS011;31129;44.810;10.334;2023-09-18T14:38:59;36.38;;;6.10;;
45392;SDS011;31129;44.810;10.334;2023-09-18T14:41:26;31.20;;;5.43;;
45392;SDS011;31129;44.810;10.334;2023-09-18T14:43:54;30.45;;;5.45;;
45392;SDS011;31129;44.810;10.334;2023-09-18T14:46:22;33.05;;;5.45;;
45392;SDS011;31129;44.810;10.334;2023-09-18T14:48:48;27.25;;;4.65;;